sensor_id;sensor_type;location;lat;lon;timestamp;P1;durP1;ratioP1;P2;durP2;ratioP2
37049;SDS011;22958;51.232;6.826;2023-12-14T00:00:19;125.00;;;45.73;;
37049;SDS011;22958;51.232;6.826;2023-12-14T00:02:45;127.30;;;46.07;;
37049;SDS011;22958;51.232;6.826;2023-12-14T00:05:11;128.33;;;46.57;;
37049;SDS011;22958;51.232;6.826;2023-12-14T00:07:36;123.53;;;46.10;;
37049;SDS011;22958;51.232;6.826;2023-12-14T00:10:02;129.73;;;45.13;;
37049;SDS011;22958;51.232;6.826;2023-12-14T00:12:29;126.13;;;44.90;;
37049;SDS011;22958;51.232;6.826;2023-12-14T00:14:55;136.77;;;45.17;;
37049;SDS011;22958;51.232;6.826;2023-12-14T00:17:21;135.27;;;46.50;;
37049;SDS011;22958;51.232;6.826;2023-12-14T00:19:46;138.20;;;46.03;;
37049;SDS011;22958;51.232;6.826;2023-12-14T00:22:12;131.33;;;45.67;;
37049;SDS011;22958;51.232;6.826;2023-12-14T00:24:37;132.97;;;45.60;;
37049;SDS011;22958;51.232;6.826;2023-12-14T00:27:03;145.93;;;48.53;;
37049;SDS011;22958;51.232;6.826;2023-12-14T00:29:29;139.43;;;48.87;;
37049;SDS011;22958;51.232;6.826;2023-12-14T00:31:54;131.63;;;45.57;;
37049;SDS011;22958;51.232;6.826;2023-12-14T00:34:20;137.07;;;47.10;;
37049;SDS011;22958;51.232;6.826;2023-12-14T00:36:45;139.30;;;48.90;;
37049;SDS011;22958;51.232;6.826;2023-12-14T00:39:11;133.60;;;46.33;;
37049;SDS011;22958;51.232;6.826;2023-12-14T00:41:36;134.43;;;47.57;;
37049;SDS011;22958;51.232;6.826;2023-12-14T00:44:02;135.70;;;46.57;;
37049;SDS011;22958;51.232;6.826;2023-12-14T00:46:28;124.60;;;44.47;;
37049;SDS011;22958;51.232;6.826;2023-12-14T00:48:53;126.00;;;47.60;;
37049;SDS011;22958;51.232;6.826;2023-12-14T00:51:19;126.30;;;44.03;;
37049;SDS011;22958;51.232;6.826;2023-12-14T00:53:44;126.43;;;45.00;;
37049;SDS011;22958;51.232;6.826;2023-12-14T00:56:10;126.37;;;44.30;;
37049;SDS011;22958;51.232;6.826;2023-12-14T00:58:35;118.03;;;43.27;;
37049;SDS011;22958;51.232;6.826;2023-12-14T01:01:01;124.43;;;42.40;;
37049;SDS011;22958;51.232;6.826;2023-12-14T01:03:26;134.43;;;45.47;;
37049;SDS011;22958;51.232;6.826;2023-12-14T01:05:52;123.00;;;45.60;;
37049;SDS011;22958;51.232;6.826;2023-12-14T01:08:17;114.73;;;41.57;;
37049;SDS011;22958;51.232;6.826;2023-12-14T01:10:43;119.97;;;44.93;;
37049;SDS011;22958;51.232;6.826;2023-12-14T01:13:09;124.03;;;43.07;;
37049;SDS011;22958;51.232;6.826;2023-12-14T01:15:34;111.13;;;38.83;;
37049;SDS011;22958;51.232;6.826;2023-12-14T01:18:00;95.80;;;37.97;;
37049;SDS011;22958;51.232;6.826;2023-12-14T01:20:25;111.53;;;40.80;;
37049;SDS011;22958;51.232;6.826;2023-12-14T01:22:52;91.28;;;37.05;;
37049;SDS011;22958;51.232;6.826;2023-12-14T01:25:17;100.03;;;38.63;;
37049;SDS011;22958;51.232;6.826;2023-12-14T01:27:43;92.70;;;37.10;;
37049;SDS011;22958;51.232;6.826;2023-12-14T01:30:08;95.20;;;36.30;;
37049;SDS011;22958;51.232;6.826;2023-12-14T01:32:34;91.30;;;35.15;;
37049;SDS011;22958;51.232;6.826;2023-12-14T01:35:00;88.70;;;36.57;;
37049;SDS011;22958;51.232;6.826;2023-12-14T01:37:25;82.13;;;36.00;;
37049;SDS011;22958;51.232;6.826;2023-12-14T01:39:51;81.33;;;34.53;;
37049;SDS011;22958;51.232;6.826;2023-12-14T01:42:16;82.87;;;34.73;;
37049;SDS011;22958;51.232;6.826;2023-12-14T01:44:42;95.57;;;37.00;;
37049;SDS011;22958;51.232;6.826;2023-12-14T01:47:07;86.83;;;36.67;;
37049;SDS011;22958;51.232;6.826;2023-12-14T01:49:33;87.27;;;35.90;;
37049;SDS011;22958;51.232;6.826;2023-12-14T01:51:58;99.50;;;37.90;;
37049;SDS011;22958;51.232;6.826;2023-12-14T01:54:24;93.83;;;37.80;;
37049;SDS011;22958;51.232;6.826;2023-12-14T01:56:49;103.33;;;39.27;;
37049;SDS011;22958;51.232;6.826;2023-12-14T01:59:15;93.83;;;37.73;;
37049;SDS011;22958;51.232;6.826;2023-12-14T02:01:42;90.27;;;37.17;;
37049;SDS011;22958;51.232;6.826;2023-12-14T02:04:11;88.03;;;35.28;;
37049;SDS011;22958;51.232;6.826;2023-12-14T02:06:38;89.82;;;34.95;;
37049;SDS011;22958;51.232;6.826;2023-12-14T02:09:04;89.63;;;37.00;;
37049;SDS011;22958;51.232;6.826;2023-12-14T02:11:30;92.83;;;36.47;;
37049;SDS011;22958;51.232;6.826;2023-12-14T02:13:56;86.13;;;37.23;;
37049;SDS011;22958;51.232;6.826;2023-12-14T02:16:21;78.10;;;36.33;;
37049;SDS011;22958;51.232;6.826;2023-12-14T02:18:47;82.43;;;33.50;;
37049;SDS011;22958;51.232;6.826;2023-12-14T02:21:12;76.10;;;32.60;;
37049;SDS011;22958;51.232;6.826;2023-12-14T02:23:44;72.93;;;33.07;;
37049;SDS011;22958;51.232;6.826;2023-12-14T02:26:10;70.25;;;32.42;;
37049;SDS011;22958;51.232;6.826;2023-12-14T02:28:36;69.35;;;31.92;;
37049;SDS011;22958;51.232;6.826;2023-12-14T02:31:02;72.13;;;31.83;;
37049;SDS011;22958;51.232;6.826;2023-12-14T02:33:28;71.97;;;32.83;;
37049;SDS011;22958;51.232;6.826;2023-12-14T02:35:53;62.23;;;32.50;;
37049;SDS011;22958;51.232;6.826;2023-12-14T02:38:19;60.07;;;30.67;;
37049;SDS011;22958;51.232;6.826;2023-12-14T02:40:44;56.10;;;29.10;;
37049;SDS011;22958;51.232;6.826;2023-12-14T02:43:10;52.83;;;27.53;;
37049;SDS011;22958;51.232;6.826;2023-12-14T02:45:35;50.73;;;26.93;;
37049;SDS011;22958;51.232;6.826;2023-12-14T02:48:01;49.13;;;25.53;;
37049;SDS011;22958;51.232;6.826;2023-12-14T02:50:27;43.83;;;22.90;;
37049;SDS011;22958;51.232;6.826;2023-12-14T02:52:52;38.87;;;20.73;;
37049;SDS011;22958;51.232;6.826;2023-12-14T02:55:17;38.67;;;19.90;;
37049;SDS011;22958;51.232;6.826;2023-12-14T02:57:43;37.33;;;18.77;;
37049;SDS011;22958;51.232;6.826;2023-12-14T03:00:10;32.15;;;18.45;;
37049;SDS011;22958;51.232;6.826;2023-12-14T03:02:36;30.98;;;17.85;;
37049;SDS011;22958;51.232;6.826;2023-12-14T03:05:01;38.73;;;19.63;;
37049;SDS011;22958;51.232;6.826;2023-12-14T03:07:27;31.90;;;17.80;;
37049;SDS011;22958;51.232;6.826;2023-12-14T03:09:53;43.10;;;22.77;;
37049;SDS011;22958;51.232;6.826;2023-12-14T03:12:18;44.30;;;22.37;;
37049;SDS011;22958;51.232;6.826;2023-12-14T03:14:44;41.77;;;23.60;;
37049;SDS011;22958;51.232;6.826;2023-12-14T03:17:09;44.13;;;22.80;;
37049;SDS011;22958;51.232;6.826;2023-12-14T03:19:37;57.67;;;27.27;;
37049;SDS011;22958;51.232;6.826;2023-12-14T03:22:04;57.92;;;28.15;;
37049;SDS011;22958;51.232;6.826;2023-12-14T03:24:30;67.27;;;31.97;;
37049;SDS011;22958;51.232;6.826;2023-12-14T03:26:55;66.07;;;29.67;;
37049;SDS011;22958;51.232;6.826;2023-12-14T03:29:21;71.93;;;31.40;;
37049;SDS011;22958;51.232;6.826;2023-12-14T03:31:47;69.50;;;31.13;;
37049;SDS011;22958;51.232;6.826;2023-12-14T03:34:13;74.10;;;33.27;;
37049;SDS011;22958;51.232;6.826;2023-12-14T03:36:38;70.53;;;31.37;;
37049;SDS011;22958;51.232;6.826;2023-12-14T03:39:04;73.37;;;31.73;;
37049;SDS011;22958;51.232;6.826;2023-12-14T03:41:30;68.65;;;31.52;;
37049;SDS011;22958;51.232;6.826;2023-12-14T03:43:56;68.13;;;32.43;;
37049;SDS011;22958;51.232;6.826;2023-12-14T03:46:22;78.27;;;30.80;;
37049;SDS011;22958;51.232;6.826;2023-12-14T03:48:48;76.30;;;32.77;;
37049;SDS011;22958;51.232;6.826;2023-12-14T03:51:13;78.40;;;32.53;;
37049;SDS011;22958;51.232;6.826;2023-12-14T03:53:42;76.00;;;32.53;;
37049;SDS011;22958;51.232;6.826;2023-12-14T03:56:08;71.37;;;31.13;;
37049;SDS011;22958;51.232;6.826;2023-12-14T03:58:33;67.33;;;29.00;;
37049;SDS011;22958;51.232;6.826;2023-12-14T04:00:59;69.97;;;28.80;;
37049;SDS011;22958;51.232;6.826;2023-12-14T04:03:24;62.47;;;26.43;;
37049;SDS011;22958;51.232;6.826;2023-12-14T04:05:50;65.73;;;27.57;;
37049;SDS011;22958;51.232;6.826;2023-12-14T04:08:15;76.87;;;32.10;;
37049;SDS011;22958;51.232;6.826;2023-12-14T04:10:41;68.07;;;31.40;;
37049;SDS011;22958;51.232;6.826;2023-12-14T04:13:06;69.80;;;30.10;;
37049;SDS011;22958;51.232;6.826;2023-12-14T04:15:32;71.47;;;28.83;;
37049;SDS011;22958;51.232;6.826;2023-12-14T04:17:57;78.53;;;30.60;;
37049;SDS011;22958;51.232;6.826;2023-12-14T04:20:23;72.30;;;29.67;;
37049;SDS011;22958;51.232;6.826;2023-12-14T04:22:48;74.53;;;30.83;;
37049;SDS011;22958;51.232;6.826;2023-12-14T04:25:14;65.73;;;28.83;;
37049;SDS011;22958;51.232;6.826;2023-12-14T04:27:39;71.80;;;30.03;;
37049;SDS011;22958;51.232;6.826;2023-12-14T04:30:05;61.40;;;29.37;;
37049;SDS011;22958;51.232;6.826;2023-12-14T04:32:35;61.70;;;27.95;;
37049;SDS011;22958;51.232;6.826;2023-12-14T04:35:04;54.75;;;27.48;;
37049;SDS011;22958;51.232;6.826;2023-12-14T04:37:30;56.55;;;25.30;;
37049;SDS011;22958;51.232;6.826;2023-12-14T04:39:56;55.90;;;25.17;;
37049;SDS011;22958;51.232;6.826;2023-12-14T04:42:24;50.00;;;23.83;;
37049;SDS011;22958;51.232;6.826;2023-12-14T04:44:50;51.87;;;24.20;;
37049;SDS011;22958;51.232;6.826;2023-12-14T04:47:15;54.30;;;25.50;;
37049;SDS011;22958;51.232;6.826;2023-12-14T04:49:41;67.00;;;25.47;;
37049;SDS011;22958;51.232;6.826;2023-12-14T04:52:06;60.10;;;25.47;;
37049;SDS011;22958;51.232;6.826;2023-12-14T04:54:32;58.60;;;26.08;;
37049;SDS011;22958;51.232;6.826;2023-12-14T04:57:00;58.13;;;25.83;;
37049;SDS011;22958;51.232;6.826;2023-12-14T04:59:26;73.07;;;29.90;;
37049;SDS011;22958;51.232;6.826;2023-12-14T05:01:51;92.43;;;36.60;;
37049;SDS011;22958;51.232;6.826;2023-12-14T05:04:16;81.53;;;35.53;;
37049;SDS011;22958;51.232;6.826;2023-12-14T05:06:42;86.13;;;34.27;;
37049;SDS011;22958;51.232;6.826;2023-12-14T05:09:07;89.77;;;33.00;;
37049;SDS011;22958;51.232;6.826;2023-12-14T05:11:33;83.50;;;32.27;;
37049;SDS011;22958;51.232;6.826;2023-12-14T05:13:58;91.77;;;35.73;;
37049;SDS011;22958;51.232;6.826;2023-12-14T05:16:24;91.67;;;34.33;;
37049;SDS011;22958;51.232;6.826;2023-12-14T05:18:52;80.97;;;32.97;;
37049;SDS011;22958;51.232;6.826;2023-12-14T05:21:18;87.80;;;33.58;;
37049;SDS011;22958;51.232;6.826;2023-12-14T05:23:44;79.67;;;30.90;;
37049;SDS011;22958;51.232;6.826;2023-12-14T05:26:09;72.67;;;30.13;;
37049;SDS011;22958;51.232;6.826;2023-12-14T05:28:35;70.33;;;29.23;;
37049;SDS011;22958;51.232;6.826;2023-12-14T05:31:01;71.40;;;28.50;;
37049;SDS011;22958;51.232;6.826;2023-12-14T05:33:27;63.63;;;27.40;;
37049;SDS011;22958;51.232;6.826;2023-12-14T05:35:53;62.83;;;27.70;;
37049;SDS011;22958;51.232;6.826;2023-12-14T05:38:19;78.23;;;30.00;;
37049;SDS011;22958;51.232;6.826;2023-12-14T05:40:44;59.10;;;26.87;;
37049;SDS011;22958;51.232;6.826;2023-12-14T05:43:10;69.57;;;28.30;;
37049;SDS011;22958;51.232;6.826;2023-12-14T05:45:36;69.60;;;27.80;;
37049;SDS011;22958;51.232;6.826;2023-12-14T05:48:01;69.87;;;27.50;;
37049;SDS011;22958;51.232;6.826;2023-12-14T05:50:30;69.15;;;27.60;;
37049;SDS011;22958;51.232;6.826;2023-12-14T05:52:55;67.87;;;27.13;;
37049;SDS011;22958;51.232;6.826;2023-12-14T05:55:21;64.93;;;27.77;;
37049;SDS011;22958;51.232;6.826;2023-12-14T05:57:47;69.43;;;29.30;;
37049;SDS011;22958;51.232;6.826;2023-12-14T06:00:13;64.57;;;27.77;;
37049;SDS011;22958;51.232;6.826;2023-12-14T06:02:39;71.73;;;28.77;;
37049;SDS011;22958;51.232;6.826;2023-12-14T06:05:05;74.03;;;30.13;;
37049;SDS011;22958;51.232;6.826;2023-12-14T06:07:32;75.22;;;28.73;;
37049;SDS011;22958;51.232;6.826;2023-12-14T06:09:57;73.37;;;30.13;;
37049;SDS011;22958;51.232;6.826;2023-12-14T06:12:23;68.30;;;28.20;;
37049;SDS011;22958;51.232;6.826;2023-12-14T06:14:48;75.97;;;30.50;;
37049;SDS011;22958;51.232;6.826;2023-12-14T06:17:15;75.15;;;29.77;;
37049;SDS011;22958;51.232;6.826;2023-12-14T06:19:40;78.70;;;29.67;;
37049;SDS011;22958;51.232;6.826;2023-12-14T06:22:06;85.10;;;31.97;;
37049;SDS011;22958;51.232;6.826;2023-12-14T06:24:32;84.70;;;34.47;;
37049;SDS011;22958;51.232;6.826;2023-12-14T06:26:57;88.40;;;32.73;;
37049;SDS011;22958;51.232;6.826;2023-12-14T06:29:23;94.10;;;30.70;;
37049;SDS011;22958;51.232;6.826;2023-12-14T06:31:48;92.00;;;33.67;;
37049;SDS011;22958;51.232;6.826;2023-12-14T06:34:14;95.70;;;33.70;;
37049;SDS011;22958;51.232;6.826;2023-12-14T06:36:46;76.15;;;29.85;;
37049;SDS011;22958;51.232;6.826;2023-12-14T06:39:12;84.90;;;31.55;;
37049;SDS011;22958;51.232;6.826;2023-12-14T06:41:38;87.28;;;32.08;;
37049;SDS011;22958;51.232;6.826;2023-12-14T06:44:04;75.57;;;28.50;;
37049;SDS011;22958;51.232;6.826;2023-12-14T06:46:30;80.82;;;29.70;;
37049;SDS011;22958;51.232;6.826;2023-12-14T06:48:55;83.33;;;29.63;;
37049;SDS011;22958;51.232;6.826;2023-12-14T06:51:21;72.10;;;27.53;;
37049;SDS011;22958;51.232;6.826;2023-12-14T06:53:47;68.38;;;26.35;;
37049;SDS011;22958;51.232;6.826;2023-12-14T06:56:13;67.28;;;28.42;;
37049;SDS011;22958;51.232;6.826;2023-12-14T06:58:40;61.10;;;26.92;;
37049;SDS011;22958;51.232;6.826;2023-12-14T07:01:07;61.35;;;25.10;;
37049;SDS011;22958;51.232;6.826;2023-12-14T07:03:33;63.72;;;25.27;;
37049;SDS011;22958;51.232;6.826;2023-12-14T07:05:58;64.30;;;27.93;;
37049;SDS011;22958;51.232;6.826;2023-12-14T07:08:24;69.13;;;27.77;;
37049;SDS011;22958;51.232;6.826;2023-12-14T07:10:50;62.63;;;26.95;;
37049;SDS011;22958;51.232;6.826;2023-12-14T07:13:15;85.23;;;32.87;;
37049;SDS011;22958;51.232;6.826;2023-12-14T07:15:41;71.87;;;30.33;;
37049;SDS011;22958;51.232;6.826;2023-12-14T07:18:07;78.77;;;32.53;;
37049;SDS011;22958;51.232;6.826;2023-12-14T07:20:32;85.87;;;34.07;;
37049;SDS011;22958;51.232;6.826;2023-12-14T07:22:58;76.07;;;31.70;;
37049;SDS011;22958;51.232;6.826;2023-12-14T07:25:23;84.20;;;34.37;;
37049;SDS011;22958;51.232;6.826;2023-12-14T07:27:49;88.43;;;35.67;;
37049;SDS011;22958;51.232;6.826;2023-12-14T07:30:15;80.30;;;34.83;;
37049;SDS011;22958;51.232;6.826;2023-12-14T07:32:41;95.33;;;39.23;;
37049;SDS011;22958;51.232;6.826;2023-12-14T07:35:06;111.27;;;41.03;;
37049;SDS011;22958;51.232;6.826;2023-12-14T07:37:33;113.85;;;41.70;;
37049;SDS011;22958;51.232;6.826;2023-12-14T07:39:59;116.07;;;41.93;;
37049;SDS011;22958;51.232;6.826;2023-12-14T07:42:24;101.77;;;38.70;;
37049;SDS011;22958;51.232;6.826;2023-12-14T07:44:50;109.82;;;40.22;;
37049;SDS011;22958;51.232;6.826;2023-12-14T07:47:16;118.70;;;42.00;;
37049;SDS011;22958;51.232;6.826;2023-12-14T07:49:41;99.83;;;37.27;;
37049;SDS011;22958;51.232;6.826;2023-12-14T07:52:07;99.93;;;37.23;;
37049;SDS011;22958;51.232;6.826;2023-12-14T07:54:32;106.07;;;39.40;;
37049;SDS011;22958;51.232;6.826;2023-12-14T07:56:58;94.30;;;36.23;;
37049;SDS011;22958;51.232;6.826;2023-12-14T07:59:23;108.17;;;40.47;;
37049;SDS011;22958;51.232;6.826;2023-12-14T08:01:49;96.07;;;38.57;;
37049;SDS011;22958;51.232;6.826;2023-12-14T08:04:15;105.03;;;38.73;;
37049;SDS011;22958;51.232;6.826;2023-12-14T08:06:40;104.40;;;38.47;;
37049;SDS011;22958;51.232;6.826;2023-12-14T08:09:06;92.90;;;36.80;;
37049;SDS011;22958;51.232;6.826;2023-12-14T08:11:32;94.22;;;36.47;;
37049;SDS011;22958;51.232;6.826;2023-12-14T08:13:58;95.07;;;37.73;;
37049;SDS011;22958;51.232;6.826;2023-12-14T08:16:23;95.63;;;35.90;;
37049;SDS011;22958;51.232;6.826;2023-12-14T08:18:49;93.07;;;38.07;;
37049;SDS011;22958;51.232;6.826;2023-12-14T08:21:15;98.53;;;37.63;;
37049;SDS011;22958;51.232;6.826;2023-12-14T08:23:41;96.40;;;39.25;;
37049;SDS011;22958;51.232;6.826;2023-12-14T08:26:07;88.63;;;38.65;;
37049;SDS011;22958;51.232;6.826;2023-12-14T08:28:35;96.03;;;39.33;;
37049;SDS011;22958;51.232;6.826;2023-12-14T08:31:00;96.93;;;39.10;;
37049;SDS011;22958;51.232;6.826;2023-12-14T08:33:28;95.55;;;40.63;;
37049;SDS011;22958;51.232;6.826;2023-12-14T08:35:54;98.28;;;40.55;;
37049;SDS011;22958;51.232;6.826;2023-12-14T08:38:19;96.22;;;40.25;;
37049;SDS011;22958;51.232;6.826;2023-12-14T08:40:45;111.10;;;41.97;;
37049;SDS011;22958;51.232;6.826;2023-12-14T08:43:11;106.97;;;41.67;;
37049;SDS011;22958;51.232;6.826;2023-12-14T08:45:36;107.63;;;43.53;;
37049;SDS011;22958;51.232;6.826;2023-12-14T08:48:02;108.60;;;44.13;;
37049;SDS011;22958;51.232;6.826;2023-12-14T08:50:28;113.10;;;45.93;;
37049;SDS011;22958;51.232;6.826;2023-12-14T08:52:53;113.57;;;44.47;;
37049;SDS011;22958;51.232;6.826;2023-12-14T08:55:19;119.60;;;46.90;;
37049;SDS011;22958;51.232;6.826;2023-12-14T08:57:44;113.13;;;45.63;;
37049;SDS011;22958;51.232;6.826;2023-12-14T09:00:10;109.83;;;42.47;;
37049;SDS011;22958;51.232;6.826;2023-12-14T09:02:36;112.07;;;44.00;;
37049;SDS011;22958;51.232;6.826;2023-12-14T09:05:02;111.20;;;45.00;;
37049;SDS011;22958;51.232;6.826;2023-12-14T09:07:29;107.28;;;43.47;;
37049;SDS011;22958;51.232;6.826;2023-12-14T09:09:55;104.63;;;41.57;;
37049;SDS011;22958;51.232;6.826;2023-12-14T09:12:20;100.73;;;40.17;;
37049;SDS011;22958;51.232;6.826;2023-12-14T09:14:46;96.27;;;38.80;;
37049;SDS011;22958;51.232;6.826;2023-12-14T09:17:12;97.87;;;39.37;;
37049;SDS011;22958;51.232;6.826;2023-12-14T09:19:38;85.97;;;37.53;;
37049;SDS011;22958;51.232;6.826;2023-12-14T09:22:03;84.23;;;37.63;;
37049;SDS011;22958;51.232;6.826;2023-12-14T09:24:29;89.30;;;37.03;;
37049;SDS011;22958;51.232;6.826;2023-12-14T09:26:55;91.70;;;39.27;;
37049;SDS011;22958;51.232;6.826;2023-12-14T09:29:20;103.33;;;40.60;;
37049;SDS011;22958;51.232;6.826;2023-12-14T09:31:46;90.03;;;39.93;;
37049;SDS011;22958;51.232;6.826;2023-12-14T09:34:12;106.77;;;43.03;;
37049;SDS011;22958;51.232;6.826;2023-12-14T09:36:38;105.70;;;42.63;;
37049;SDS011;22958;51.232;6.826;2023-12-14T09:39:04;120.57;;;44.58;;
37049;SDS011;22958;51.232;6.826;2023-12-14T09:41:30;122.70;;;45.33;;
37049;SDS011;22958;51.232;6.826;2023-12-14T09:43:56;123.83;;;47.47;;
37049;SDS011;22958;51.232;6.826;2023-12-14T09:46:22;114.77;;;44.37;;
37049;SDS011;22958;51.232;6.826;2023-12-14T09:48:51;106.85;;;44.08;;
37049;SDS011;22958;51.232;6.826;2023-12-14T09:51:18;101.53;;;40.92;;
37049;SDS011;22958;51.232;6.826;2023-12-14T09:53:44;90.70;;;41.50;;
37049;SDS011;22958;51.232;6.826;2023-12-14T09:56:10;101.93;;;40.93;;
37049;SDS011;22958;51.232;6.826;2023-12-14T09:58:35;83.60;;;38.67;;
37049;SDS011;22958;51.232;6.826;2023-12-14T10:01:01;98.53;;;40.92;;
37049;SDS011;22958;51.232;6.826;2023-12-14T10:03:29;89.13;;;40.47;;
37049;SDS011;22958;51.232;6.826;2023-12-14T10:05:55;94.75;;;42.05;;
37049;SDS011;22958;51.232;6.826;2023-12-14T10:08:21;88.47;;;39.92;;
37049;SDS011;22958;51.232;6.826;2023-12-14T10:10:48;85.37;;;40.97;;
37049;SDS011;22958;51.232;6.826;2023-12-14T10:13:17;80.47;;;36.00;;
37049;SDS011;22958;51.232;6.826;2023-12-14T10:15:44;80.25;;;36.42;;
37049;SDS011;22958;51.232;6.826;2023-12-14T10:18:11;82.65;;;34.72;;
37049;SDS011;22958;51.232;6.826;2023-12-14T10:20:38;76.68;;;36.78;;
37049;SDS011;22958;51.232;6.826;2023-12-14T10:23:05;75.18;;;33.83;;
37049;SDS011;22958;51.232;6.826;2023-12-14T10:25:32;85.15;;;36.83;;
37049;SDS011;22958;51.232;6.826;2023-12-14T10:27:58;88.68;;;40.33;;
37049;SDS011;22958;51.232;6.826;2023-12-14T10:30:25;89.65;;;38.55;;
37049;SDS011;22958;51.232;6.826;2023-12-14T10:32:52;89.10;;;39.28;;
37049;SDS011;22958;51.232;6.826;2023-12-14T10:35:18;86.97;;;38.37;;
37049;SDS011;22958;51.232;6.826;2023-12-14T10:40:11;67.65;;;31.27;;
37049;SDS011;22958;51.232;6.826;2023-12-14T10:42:39;64.00;;;29.40;;
37049;SDS011;22958;51.232;6.826;2023-12-14T10:45:08;66.47;;;30.52;;
37049;SDS011;22958;51.232;6.826;2023-12-14T10:47:38;67.00;;;30.15;;
37049;SDS011;22958;51.232;6.826;2023-12-14T10:50:05;63.72;;;30.50;;
37049;SDS011;22958;51.232;6.826;2023-12-14T10:52:31;60.78;;;29.38;;
37049;SDS011;22958;51.232;6.826;2023-12-14T10:55:01;61.22;;;29.05;;
37049;SDS011;22958;51.232;6.826;2023-12-14T10:57:34;56.17;;;27.48;;
37049;SDS011;22958;51.232;6.826;2023-12-14T11:00:00;65.60;;;29.73;;
37049;SDS011;22958;51.232;6.826;2023-12-14T11:02:27;64.88;;;29.67;;
37049;SDS011;22958;51.232;6.826;2023-12-14T11:10:24;65.22;;;30.52;;
37049;SDS011;22958;51.232;6.826;2023-12-14T11:13:02;61.33;;;28.02;;
37049;SDS011;22958;51.232;6.826;2023-12-14T11:15:30;62.15;;;30.00;;
37049;SDS011;22958;51.232;6.826;2023-12-14T11:23:14;60.05;;;27.60;;
37049;SDS011;22958;51.232;6.826;2023-12-14T11:25:47;58.45;;;27.85;;
37049;SDS011;22958;51.232;6.826;2023-12-14T11:28:14;69.28;;;28.48;;
37049;SDS011;22958;51.232;6.826;2023-12-14T11:30:40;78.60;;;30.07;;
37049;SDS011;22958;51.232;6.826;2023-12-14T11:33:08;67.65;;;27.60;;
37049;SDS011;22958;51.232;6.826;2023-12-14T11:35:33;71.33;;;30.67;;
37049;SDS011;22958;51.232;6.826;2023-12-14T11:37:59;67.93;;;27.83;;
37049;SDS011;22958;51.232;6.826;2023-12-14T11:40:27;76.47;;;30.27;;
37049;SDS011;22958;51.232;6.826;2023-12-14T11:43:00;68.28;;;28.50;;
37049;SDS011;22958;51.232;6.826;2023-12-14T11:45:31;55.25;;;25.13;;
37049;SDS011;22958;51.232;6.826;2023-12-14T11:47:57;54.33;;;27.17;;
37049;SDS011;22958;51.232;6.826;2023-12-14T11:50:22;51.43;;;26.27;;
37049;SDS011;22958;51.232;6.826;2023-12-14T11:52:48;58.23;;;25.30;;
37049;SDS011;22958;51.232;6.826;2023-12-14T11:55:14;53.25;;;24.42;;
37049;SDS011;22958;51.232;6.826;2023-12-14T11:57:45;48.67;;;24.30;;
37049;SDS011;22958;51.232;6.826;2023-12-14T12:00:12;49.13;;;24.60;;
37049;SDS011;22958;51.232;6.826;2023-12-14T12:02:38;52.17;;;24.08;;
37049;SDS011;22958;51.232;6.826;2023-12-14T12:07:38;46.60;;;23.02;;
37049;SDS011;22958;51.232;6.826;2023-12-14T12:10:04;49.03;;;23.00;;
37049;SDS011;22958;51.232;6.826;2023-12-14T12:12:32;50.60;;;22.38;;
37049;SDS011;22958;51.232;6.826;2023-12-14T12:14:59;47.08;;;21.27;;
37049;SDS011;22958;51.232;6.826;2023-12-14T12:17:24;40.70;;;20.27;;
37049;SDS011;22958;51.232;6.826;2023-12-14T12:22:16;41.30;;;20.00;;
37049;SDS011;22958;51.232;6.826;2023-12-14T12:24:42;41.97;;;21.07;;
37049;SDS011;22958;51.232;6.826;2023-12-14T12:27:07;35.87;;;18.27;;
37049;SDS011;22958;51.232;6.826;2023-12-14T12:29:34;35.13;;;18.10;;
37049;SDS011;22958;51.232;6.826;2023-12-14T12:31:59;33.57;;;17.47;;
37049;SDS011;22958;51.232;6.826;2023-12-14T12:34:25;38.20;;;16.57;;
37049;SDS011;22958;51.232;6.826;2023-12-14T12:36:51;33.67;;;15.43;;
37049;SDS011;22958;51.232;6.826;2023-12-14T12:39:16;28.80;;;15.50;;
37049;SDS011;22958;51.232;6.826;2023-12-14T12:41:42;28.67;;;14.33;;
37049;SDS011;22958;51.232;6.826;2023-12-14T12:44:07;29.77;;;14.50;;
37049;SDS011;22958;51.232;6.826;2023-12-14T12:46:36;29.92;;;13.27;;
37049;SDS011;22958;51.232;6.826;2023-12-14T12:49:03;26.02;;;12.77;;
37049;SDS011;22958;51.232;6.826;2023-12-14T12:51:30;24.60;;;12.80;;
37049;SDS011;22958;51.232;6.826;2023-12-14T12:53:56;26.05;;;11.82;;
37049;SDS011;22958;51.232;6.826;2023-12-14T12:56:23;29.00;;;12.07;;
37049;SDS011;22958;51.232;6.826;2023-12-14T12:58:49;25.35;;;12.50;;
37049;SDS011;22958;51.232;6.826;2023-12-14T13:01:17;21.58;;;10.20;;
37049;SDS011;22958;51.232;6.826;2023-12-14T13:03:42;29.47;;;11.80;;
37049;SDS011;22958;51.232;6.826;2023-12-14T13:06:08;26.40;;;10.43;;
37049;SDS011;22958;51.232;6.826;2023-12-14T13:08:34;21.07;;;10.13;;
37049;SDS011;22958;51.232;6.826;2023-12-14T13:10:59;26.13;;;10.43;;
37049;SDS011;22958;51.232;6.826;2023-12-14T13:13:25;23.47;;;9.73;;
37049;SDS011;22958;51.232;6.826;2023-12-14T13:15:50;19.17;;;9.60;;
37049;SDS011;22958;51.232;6.826;2023-12-14T13:18:16;16.60;;;9.30;;
37049;SDS011;22958;51.232;6.826;2023-12-14T13:20:41;19.30;;;9.57;;
37049;SDS011;22958;51.232;6.826;2023-12-14T13:23:07;17.03;;;8.70;;
37049;SDS011;22958;51.232;6.826;2023-12-14T13:25:33;15.50;;;7.93;;
37049;SDS011;22958;51.232;6.826;2023-12-14T13:27:59;20.08;;;7.03;;
37049;SDS011;22958;51.232;6.826;2023-12-14T13:30:25;15.13;;;7.10;;
37049;SDS011;22958;51.232;6.826;2023-12-14T13:32:51;13.82;;;6.35;;
37049;SDS011;22958;51.232;6.826;2023-12-14T13:35:18;15.52;;;8.00;;
37049;SDS011;22958;51.232;6.826;2023-12-14T13:37:44;17.60;;;7.93;;
37049;SDS011;22958;51.232;6.826;2023-12-14T13:40:11;20.08;;;9.43;;
37049;SDS011;22958;51.232;6.826;2023-12-14T13:42:37;20.55;;;9.68;;
37049;SDS011;22958;51.232;6.826;2023-12-14T13:45:03;18.87;;;9.77;;
37049;SDS011;22958;51.232;6.826;2023-12-14T13:47:29;20.52;;;9.27;;
37049;SDS011;22958;51.232;6.826;2023-12-14T13:49:55;22.70;;;10.60;;
37049;SDS011;22958;51.232;6.826;2023-12-14T13:52:20;19.53;;;10.33;;
37049;SDS011;22958;51.232;6.826;2023-12-14T13:54:46;21.80;;;10.40;;
37049;SDS011;22958;51.232;6.826;2023-12-14T13:57:11;21.93;;;10.47;;
37049;SDS011;22958;51.232;6.826;2023-12-14T13:59:37;24.27;;;12.03;;
37049;SDS011;22958;51.232;6.826;2023-12-14T14:02:02;23.43;;;10.37;;
37049;SDS011;22958;51.232;6.826;2023-12-14T14:04:28;19.47;;;10.27;;
37049;SDS011;22958;51.232;6.826;2023-12-14T14:06:53;19.83;;;10.33;;
37049;SDS011;22958;51.232;6.826;2023-12-14T14:09:19;22.57;;;9.67;;
37049;SDS011;22958;51.232;6.826;2023-12-14T14:11:45;22.63;;;10.88;;
37049;SDS011;22958;51.232;6.826;2023-12-14T14:14:13;21.45;;;10.30;;
37049;SDS011;22958;51.232;6.826;2023-12-14T14:16:39;23.60;;;10.23;;
37049;SDS011;22958;51.232;6.826;2023-12-14T14:19:05;19.73;;;9.65;;
37049;SDS011;22958;51.232;6.826;2023-12-14T14:21:31;19.87;;;10.17;;
37049;SDS011;22958;51.232;6.826;2023-12-14T14:23:56;19.13;;;9.77;;
37049;SDS011;22958;51.232;6.826;2023-12-14T14:26:22;23.43;;;10.77;;
37049;SDS011;22958;51.232;6.826;2023-12-14T14:28:47;21.70;;;10.67;;